Latest Weather Observations for Essendon Airport

IDV60901

Issued at 9:11 pm EST Saturday 25 June 2022 (issued every 10 minutes, with the page automatically refreshed every 10 minutes)

About weather observations | Map of Melbourne area stations | Latest observations for Melbourne area | Other Formats
Station Details ID: 086038 Name: ESSENDON AIRPORT Lat: -37.73 Lon: 144.91 Height: 78.4 m
Data from the previous 72 hours. | See also: Recent months at Essendon Airport
Date/Time
EST
Temp
°C
App
Temp
°C
Dew
Point
°C
Rel
Hum
%
Delta-T
°C
Wind Press
QNH
hPa
Press
MSL
hPa
Rain since
9am
mm
Dir  Spd
km/h
Gust
km/h
Spd
kts
Gust
kts
25/09:00pm 11.0 7.1 7.3 78 1.8 N 17 26 9 14 1020.3 1020.4 0.0
25/08:30pm 11.2 5.6 7.3 77 1.9 N 26 35 14 19 1019.8 1019.9 0.0
25/08:00pm 11.5 5.5 7.2 75 2.1 N 28 41 15 22 1020.0 1020.1 0.0
25/07:30pm 11.7 5.8 7.6 76 2.0 N 28 43 15 23 1019.8 1019.9 0.0
25/07:00pm 12.0 6.5 7.7 75 2.1 N 26 39 14 21 1019.6 1019.7 0.0
25/06:30pm 12.0 6.9 7.5 74 2.2 N 24 37 13 20 1019.3 1019.4 0.0
25/06:00pm 11.9 7.8 7.8 76 2.0 N 19 26 10 14 1019.3 1019.4 0.0
25/05:30pm 12.3 8.1 7.4 72 2.4 N 19 24 10 13 1019.4 1019.5 0.0
25/05:00pm 12.6 8.8 7.5 71 2.5 N 17 22 9 12 1019.1 1019.2 0.0
25/04:30pm 13.9 9.1 7.2 64 3.3 NNW 22 30 12 16 1019.1 1019.2 0.0
25/04:00pm 14.1 8.6 7.4 64 3.3 N 26 35 14 19 1019.1 1019.2 0.0
25/03:30pm 14.4 8.9 7.5 63 3.4 NNW 26 37 14 20 1019.1 1019.2 0.0
25/03:00pm 15.1 9.1 6.9 58 4.0 NW 28 37 15 20 1019.1 1019.2 0.0
25/02:30pm 14.8 9.1 6.6 58 4.0 NNW 26 35 14 19 1018.9 1019.0 0.0
25/02:00pm 14.8 9.5 6.6 58 4.0 NW 24 35 13 19 1019.1 1019.2 0.0
25/01:30pm 14.9 9.3 7.0 59 3.9 NW 26 39 14 21 1019.4 1019.5 0.0
25/01:00pm 14.6 8.5 6.4 58 4.0 NW 28 39 15 21 1019.4 1019.5 0.0
25/12:30pm 14.5 8.3 6.1 57 4.0 NW 28 41 15 22 1019.5 1019.6 0.0
25/12:00pm 14.2 8.5 6.6 60 3.7 NNW 26 39 14 21 1019.6 1019.7 0.0
25/11:30am 14.2 9.8 7.3 63 3.4 NNW 20 32 11 17 1020.0 1020.1 0.0
25/11:00am 13.7 8.9 7.5 66 3.0 NW 22 35 12 19 1020.2 1020.3 0.0
25/10:30am 13.0 8.3 7.9 71 2.5 NNW 22 32 12 17 1020.3 1020.4 0.0
25/10:00am 12.5 8.1 7.6 72 2.4 NNW 20 30 11 16 1020.3 1020.4 0.0
25/09:30am 12.1 8.3 7.4 73 2.3 NNW 17 26 9 14 1019.8 1019.9 0.0
25/09:00am 11.3 6.4 7.0 75 2.1 NNW 22 32 12 17 1019.1 1019.2 0.2
25/08:30am 10.5 6.0 6.8 78 1.8 NNW 20 33 11 18 1019.0 1019.1 0.2
25/08:00am 9.5 5.1 6.6 82 1.4 NNW 19 26 10 14 1019.0 1019.1 0.2
25/07:30am 9.2 4.8 6.5 83 1.3 N 19 22 10 12 1019.0 1019.1 0.2
25/07:00am 8.7 4.2 6.3 85 1.1 N 19 24 10 13 1018.7 1018.8 0.2
25/06:30am 8.7 4.2 6.2 84 1.2 NNW 19 26 10 14 1018.3 1018.4 0.2
25/06:00am 8.7 5.4 6.2 84 1.1 NNW 13 19 7 10 1018.1 1018.2 0.2
25/05:30am 8.4 5.1 6.2 86 1.0 N 13 19 7 10 1017.8 1017.9 0.2
25/05:00am 9.0 4.9 6.4 84 1.2 N 17 24 9 13 1017.5 1017.6 0.2
25/04:30am 9.3 5.3 6.6 83 1.3 N 17 20 9 11 1017.2 1017.3 0.2
25/04:00am 10.0 6.3 6.3 78 1.7 N 15 20 8 11 1017.1 1017.2 0.2
25/03:30am 10.5 6.8 6.5 76 1.9 NNW 15 22 8 12 1017.2 1017.3 0.2
25/03:00am 10.7 7.4 6.6 76 1.9 N 13 20 7 11 1017.3 1017.4 0.2
25/02:30am 11.4 7.4 6.7 73 2.2 NNW 17 24 9 13 1017.3 1017.4 0.2
25/02:00am 11.0 7.1 6.9 76 1.9 NNW 17 20 9 11 1017.3 1017.4 0.2
25/01:30am 10.9 7.0 7.0 77 1.9 NW 17 22 9 12 1017.1 1017.2 0.2
25/01:00am 10.9 7.4 7.4 79 1.7 NW 15 20 8 11 1017.2 1017.3 0.2
25/12:30am 10.7 8.1 7.6 81 1.5 NNW 11 17 6 9 1017.2 1017.3 0.2
25/12:00am 10.8 8.2 7.7 81 1.5 NNW 11 15 6 8 1017.4 1017.5 0.2
 
Date/Time
EST
Temp
°C
App
Temp
°C
Dew
Point
°C
Rel
Hum
%
Delta-T
°C
Wind Press
QNH
hPa
Press
MSL
hPa
Rain since
9am
mm
Dir  Spd
km/h
Gust
km/h
Spd
kts
Gust
kts
24/11:30pm 10.5 8.3 7.7 83 1.4 N 9 15 5 8 1017.6 1017.7 0.2
24/11:00pm 9.6 7.9 7.5 87 1.0 N 6 9 3 5 1017.5 1017.6 0.2
24/10:30pm 9.8 7.2 7.6 86 1.1 N 11 13 6 7 1017.5 1017.6 0.2
24/10:00pm 10.0 6.9 7.4 84 1.2 NNW 13 17 7 9 1017.6 1017.7 0.2
24/09:30pm 9.9 7.6 7.5 85 1.1 NW 9 11 5 6 1017.6 1017.7 0.2
24/09:00pm 9.9 8.2 8.2 89 0.8 NW 7 9 4 5 1017.5 1017.6 0.2
24/08:30pm 10.2 8.6 8.1 87 1.0 WSW 6 6 3 3 1017.4 1017.5 0.2
24/08:00pm 9.9 8.0 7.5 85 1.1 WSW 7 11 4 6 1017.5 1017.6 0.2
24/07:30pm 11.1 9.1 7.0 76 2.0 WSW 7 9 4 5 1017.4 1017.5 0.2
24/07:00pm 12.3 9.4 6.4 67 2.8 NW 11 15 6 8 1016.9 1017.0 0.2
24/06:30pm 12.2 9.4 6.9 70 2.5 NNW 11 13 6 7 1016.5 1016.6 0.2
24/06:00pm 12.8 9.5 6.2 64 3.1 NW 13 17 7 9 1016.2 1016.3 0.2
24/05:30pm 12.7 9.6 5.6 62 3.3 NW 11 15 6 8 1015.9 1016.0 0.2
24/05:00pm 13.6 10.1 5.5 58 3.8 WNW 13 19 7 10 1015.7 1015.8 0.2
24/04:30pm 14.6 11.3 6.2 57 4.1 WNW 13 24 7 13 1015.4 1015.5 0.2
24/04:00pm 14.9 10.3 6.7 58 4.0 W 20 28 11 15 1015.4 1015.5 0.2
24/03:30pm 15.3 11.4 7.3 59 4.0 NW 17 26 9 14 1015.3 1015.4 0.2
24/03:00pm 15.1 11.3 7.4 60 3.8 WNW 17 22 9 12 1015.2 1015.3 0.2
24/02:30pm 15.8 12.1 7.8 59 4.0 W 17 24 9 13 1014.8 1015.0 0.2
24/02:00pm 15.6 12.3 7.9 60 3.9 WSW 15 24 8 13 1014.8 1015.0 0.2
24/01:30pm 15.5 13.1 10.1 70 2.8 WNW 13 20 7 11 1015.2 1015.3 0.2
24/01:00pm 13.9 10.6 9.5 75 2.3 NW 17 24 9 13 1015.4 1015.5 0.2
24/12:30pm 13.5 9.4 8.8 73 2.4 WNW 20 32 11 17 1015.5 1015.6 0.2
24/12:00pm 12.6 7.1 9.1 79 1.8 NW 28 35 15 19 1015.7 1015.8 0.2
24/11:30am 13.4 10.0 10.4 82 1.6 WNW 19 28 10 15 1015.9 1016.0 0.2
24/11:00am 12.3 9.8 11.2 93 0.6 W 15 22 8 12 1015.9 1016.0 0.2
24/10:30am 12.3 9.0 11.0 92 0.7 SW 19 24 10 13 1015.9 1016.0 0.0
24/10:00am 13.3 11.3 10.3 82 1.6 WNW 11 17 6 9 1015.6 1015.7 0.0
24/09:30am 12.5 10.1 10.2 86 1.2 WNW 13 19 7 10 1015.3 1015.4 0.0
24/09:00am 12.6 10.1 9.6 82 1.5 NNW 13 20 7 11 1014.6 1014.8 2.2
24/08:30am 12.3 9.3 9.3 82 1.5 NNW 15 20 8 11 1014.3 1014.5 2.2
24/08:00am 12.2 8.5 9.6 84 1.3 NNW 19 26 10 14 1014.0 1014.1 2.2
24/07:30am 11.9 8.7 9.8 87 1.1 NNW 17 22 9 12 1013.7 1013.8 2.2
24/07:00am 11.6 8.4 9.9 89 0.9 NNW 17 24 9 13 1013.3 1013.4 2.2
24/06:30am 11.4 8.3 10.3 93 0.6 N 17 22 9 12 1012.8 1012.9 2.2
24/06:00am 11.3 8.6 10.4 94 0.5 N 15 19 8 10 1012.3 1012.4 2.0
24/05:30am 11.8 8.2 9.9 88 1.0 N 19 26 10 14 1012.5 1012.6 0.4
24/05:00am 12.3 8.3 9.1 81 1.6 N 20 33 11 18 1011.9 1012.0 0.0
24/04:30am 12.6 8.6 9.1 79 1.8 N 20 28 11 15 1012.0 1012.1 0.0
24/04:00am 12.9 8.5 9.0 77 2.0 N 22 33 12 18 1012.1 1012.2 0.0
24/03:30am 13.2 8.0 8.9 75 2.2 N 26 41 14 22 1012.4 1012.5 0.0
24/03:00am 13.2 7.7 9.1 76 2.1 N 28 43 15 23 1012.5 1012.6 0.0
24/02:30am 13.0 7.9 9.3 78 1.9 N 26 41 14 22 1012.7 1012.8 0.0
24/02:00am 13.0 7.2 9.4 79 1.8 N 30 50 16 27 1012.5 1012.6 0.0
24/01:41am 12.9 6.7 9.5 80 1.7 N 32 50 17 27 1012.4 1012.5 0.0
24/01:30am 12.9 5.8 9.5 80 1.7 N 37 52 20 28 1012.7 1012.8 0.0
24/01:02am 13.0 6.0 9.8 81 1.6 N 37 59 20 32 1013.0 1013.1 0.0
24/01:00am 12.9 5.5 9.7 81 1.6 N 39 52 21 28 1013.0 1013.1 0.0
24/12:44am 12.9 6.6 9.7 81 1.6 N 33 52 18 28 1013.5 1013.6 0.0
24/12:30am 12.8 6.1 9.6 81 1.6 N 35 48 19 26 1013.3 1013.4 0.0
24/12:00am 13.1 6.4 9.7 80 1.7 N 35 56 19 30 1013.7 1013.8 0.0
 
Date/Time
EST
Temp
°C
App
Temp
°C
Dew
Point
°C
Rel
Hum
%
Delta-T
°C
Wind Press
QNH
hPa
Press
MSL
hPa
Rain since
9am
mm
Dir  Spd
km/h
Gust
km/h
Spd
kts
Gust
kts
23/11:30pm 13.4 7.3 9.8 79 1.9 N 32 50 17 27 1013.9 1014.0 0.0
23/11:08pm 13.6 6.6 10.0 79 1.9 N 37 57 20 31 1013.8 1013.9 0.0
23/11:00pm 13.5 6.1 9.9 79 1.9 N 39 54 21 29 1013.8 1013.9 0.0
23/10:50pm 13.6 7.0 10.0 79 1.9 N 35 56 19 30 1014.1 1014.2 0.0
23/10:30pm 13.6 7.1 10.2 80 1.8 N 35 50 19 27 1014.4 1014.6 0.0
23/10:00pm 13.6 7.5 10.6 82 1.6 N 33 46 18 25 1015.0 1015.2 0.0
23/09:30pm 13.7 9.8 10.7 82 1.6 N 22 37 12 20 1015.8 1015.9 0.0
23/09:00pm 14.0 9.0 10.8 81 1.7 NNW 28 50 15 27 1015.9 1016.0 0.0
23/08:32pm 14.3 8.5 10.9 80 1.8 N 32 50 17 27 1015.7 1015.8 0.0
23/08:30pm 14.2 8.4 10.8 80 1.8 N 32 44 17 24 1015.7 1015.8 0.0
23/08:00pm 14.2 8.4 10.8 80 1.8 N 32 46 17 25 1015.9 1016.0 0.0
23/07:30pm 14.0 8.6 10.8 81 1.7 N 30 44 16 24 1016.0 1016.1 0.0
23/07:00pm 14.0 8.2 10.8 81 1.7 N 32 43 17 23 1016.0 1016.1 0.0
23/06:30pm 14.0 8.6 10.8 81 1.7 N 30 41 16 22 1016.3 1016.4 0.0
23/06:00pm 13.8 9.1 10.8 82 1.6 N 26 37 14 20 1016.3 1016.4 0.0
23/05:30pm 13.8 9.6 11.0 83 1.5 N 24 33 13 18 1016.3 1016.4 0.0
23/05:00pm 13.9 9.2 10.5 80 1.8 N 26 37 14 20 1016.6 1016.7 0.0
23/04:30pm 14.1 8.2 10.5 79 1.9 N 32 43 17 23 1016.6 1016.7 0.0
23/04:00pm 14.2 9.9 10.6 79 1.9 N 24 37 13 20 1016.9 1017.0 0.0
23/03:30pm 14.5 10.1 10.3 76 2.2 N 24 35 13 19 1017.1 1017.2 0.0
23/03:00pm 14.9 10.5 10.3 74 2.4 N 24 32 13 17 1017.1 1017.2 0.0
23/02:30pm 15.1 10.7 10.3 73 2.5 N 24 33 13 18 1017.3 1017.4 0.0
23/02:00pm 15.7 11.0 9.4 66 3.3 NNW 24 37 13 20 1017.6 1017.7 0.0
23/01:30pm 15.6 11.0 9.5 67 3.2 N 24 37 13 20 1018.1 1018.2 0.0
23/01:00pm 15.8 11.6 9.7 67 3.2 NNW 22 33 12 18 1018.7 1018.8 0.0
23/12:30pm 15.5 11.4 10.1 70 2.8 N 22 32 12 17 1019.6 1019.7 0.0
23/12:00pm 15.5 12.5 10.7 73 2.5 NNW 17 24 9 13 1020.0 1020.1 0.0
23/11:30am 14.8 11.2 11.8 82 1.6 N 22 30 12 16 1020.5 1020.6 0.0
23/11:00am 14.6 11.2 11.4 81 1.7 NNW 20 30 11 16 1020.9 1021.0 0.0
23/10:30am 14.6 10.4 11.0 79 1.9 NNW 24 37 13 20 1021.0 1021.1 0.0
23/10:00am 14.4 11.0 11.2 81 1.7 NNW 20 30 11 16 1021.3 1021.4 0.0
23/09:30am 14.1 10.7 10.7 80 1.8 N 19 28 10 15 1021.3 1021.4 0.0
23/09:00am 12.6 10.7 10.5 87 1.1 N 11 15 6 8 1021.7 1021.8 0.0
23/08:30am 11.8 9.8 10.2 90 0.8 N 11 15 6 8 1021.7 1021.8 0.0
23/08:00am 11.7 8.5 10.1 90 0.8 N 17 24 9 13 1021.3 1021.4 0.0
23/07:30am 11.5 7.6 9.6 88 1.0 N 20 26 11 14 1021.4 1021.5 0.0
23/07:00am 11.6 7.8 9.7 88 1.0 NNW 20 28 11 15 1021.5 1021.6 0.0
23/06:30am 11.3 8.1 9.9 91 0.7 N 17 24 9 13 1021.2 1021.3 0.0
23/06:00am 10.9 7.7 10.0 94 0.5 N 17 24 9 13 1021.2 1021.3 0.0
23/05:30am 11.2 8.0 10.1 93 0.6 N 17 22 9 12 1021.4 1021.5 0.0
23/05:00am 11.7 8.0 10.3 91 0.7 N 20 28 11 15 1021.0 1021.1 0.0
23/04:30am 11.9 8.2 10.3 90 0.8 N 20 26 11 14 1021.3 1021.4 0.0
23/04:00am 12.0 8.9 10.4 90 0.8 N 17 26 9 14 1021.9 1022.0 0.0
23/03:30am 12.0 8.9 10.4 90 0.8 N 17 22 9 12 1022.0 1022.1 0.0
23/03:00am 12.0 8.9 10.2 89 0.9 NNW 17 28 9 15 1022.3 1022.4 0.0
23/02:30am 11.9 7.5 10.3 90 0.8 N 24 35 13 19 1022.4 1022.5 0.0
23/02:00am 11.6 8.5 10.3 92 0.7 N 17 28 9 15 1022.6 1022.7 0.0
23/01:30am 11.8 8.3 10.2 90 0.8 NNW 19 28 10 15 1022.7 1022.8 0.0
23/01:00am 11.7 8.6 10.3 91 0.7 N 17 28 9 15 1022.9 1023.0 0.0
23/12:30am 11.4 7.7 10.1 92 0.7 N 20 30 11 16 1022.9 1023.0 0.0
23/12:00am 11.5 7.0 10.2 92 0.7 N 24 35 13 19 1022.8 1022.9 0.0
 
Date/Time
EST
Temp
°C
App
Temp
°C
Dew
Point
°C
Rel
Hum
%
Delta-T
°C
Wind Press
QNH
hPa
Press
MSL
hPa
Rain since
9am
mm
Dir  Spd
km/h
Gust
km/h
Spd
kts
Gust
kts
22/11:30pm 11.7 8.1 10.4 92 0.7 N 20 30 11 16 1023.0 1023.1 0.0
22/11:00pm 11.6 7.7 10.7 94 0.5 N 22 32 12 17 1023.2 1023.3 0.0
22/10:30pm 11.9 7.9 10.5 91 0.7 N 22 32 12 17 1023.4 1023.5 0.0
22/10:00pm 12.0 7.6 10.4 90 0.8 N 24 32 13 17 1023.6 1023.7 0.0
22/09:30pm 11.9 7.4 10.1 89 0.9 N 24 33 13 18 1023.6 1023.7 0.0

Latest Capital City Observations: Canberra | Sydney | Melbourne | Brisbane | Adelaide | Perth | Hobart | Darwin

Other formats

Comma delimited format used in spreadsheet applications
http://www.bom.gov.au/fwo/IDV60901/IDV60901.95866.axf

JavaScript Object Notation format (JSON) in row-major order
http://www.bom.gov.au/fwo/IDV60901/IDV60901.95866.json

Data quality

Most of these data are generated automatically and are frequently updated. Quality checks on data are not normally performed. It is possible for incorrect values to appear. Refer to information at About Latest Weather Observations and please check the disclaimer before using these data.